NO-0017 weather

Gravvold Airfield
Surnadal, Møre og Romsdal, Norway

Public forecast

Using degrees Celsius for public forecast. Weather courtesy of forecast.io.

METAR (pilot weather report)

Closest report is Kristiansund Airport (Kvernberget), 24.4 nm (45.2 km) W. Retrieved 2019/07/17 22:20 UTC (0 seconds ago):

ENKB 172220Z AUTO 00000KT 9999 FEW080/// BKN170/// OVC200/// 13/10 Q1009 RMK WIND 745FT 13003KT

TAF (pilot weather forecast)

Forecast is more than 12 hours old.

Closest forecast is Molde Airport, 43.9 nm (81.2 km) WSW. Retrieved 2011/03/08 08:45 UTC (8 years ago):

TAF TAF ESDF 0808 FCNO33 ENMI 080800 RRC TAF ENML 080800Z 0809/0818 21015KT 9999 FEW030 BKN050 TEMPO 0809/0818 21022G35KT BECMG 0815/0818 21022G35KT TEMPO 0815/0818 4000 RADZ BKN012